Time;durP1;ratioP1;P1;durP2;ratioP2;P2;SDS_P1;SDS_P2;PMS_P1;PMS_P2;Temp;Humidity;BMP_temperature;BMP_pressure;BME280_temperature;BME280_humidity;BME280_pressure;Samples;Min_cycle;Max_cycle;Signal;HPM_P1;HPM_P2
2023/03/11 00:01:28;;;;;;;13.00;6.83;;;;;;;2.74;37.60;98844.94;5021098;28;20067;-61
2023/03/11 00:03:54;;;;;;;14.90;8.03;;;;;;;2.62;37.83;98840.72;5054467;28;20048;-60
2023/03/11 00:06:20;;;;;;;14.43;7.47;;;;;;;2.58;38.03;98841.94;5053974;28;20044;-60
2023/03/11 00:08:45;;;;;;;16.23;7.90;;;;;;;2.44;37.68;98850.13;5068649;28;20076;-63
2023/03/11 00:11:11;;;;;;;18.10;8.73;;;;;;;2.49;38.58;98835.66;5018734;28;20384;-62
2023/03/11 00:13:38;;;;;;;16.97;8.43;;;;;;;2.56;38.38;98836.84;5018725;28;20040;-61
2023/03/11 00:16:04;;;;;;;24.00;9.23;;;;;;;2.64;38.74;98838.81;5052023;28;20052;-61
2023/03/11 00:18:30;;;;;;;21.63;9.13;;;;;;;2.61;38.86;98837.28;5035064;28;20386;-60
2023/03/11 00:20:57;;;;;;;21.73;9.10;;;;;;;2.85;38.84;98837.84;5018805;28;20036;-61
2023/03/11 00:23:23;;;;;;;16.73;8.60;;;;;;;2.75;38.23;98844.81;5054880;28;20428;-60
2023/03/11 00:25:49;;;;;;;16.10;7.73;;;;;;;2.41;37.63;98839.91;5061081;28;20407;-63
2023/03/11 00:28:15;;;;;;;12.73;6.43;;;;;;;2.22;38.14;98835.34;5027559;28;20056;-61
2023/03/11 00:30:42;;;;;;;11.50;5.93;;;;;;;2.09;38.40;98837.28;5027666;28;20142;-61
2023/03/11 00:33:10;;;;;;;13.27;6.80;;;;;;;1.72;38.09;98836.78;5077340;28;20052;-61
2023/03/11 00:35:39;;;;;;;11.48;5.97;;;;;;;1.75;38.88;98833.13;5060976;28;20067;-60
2023/03/11 00:38:06;;;;;;;13.13;7.00;;;;;;;1.42;39.37;98828.78;5043691;28;20567;-61
2023/03/11 00:40:34;;;;;;;19.80;7.77;;;;;;;1.69;39.57;98836.22;5077249;28;20119;-61
2023/03/11 00:43:01;;;;;;;16.57;6.80;;;;;;;1.38;39.23;98845.63;5077168;28;20056;-61
2023/03/11 00:45:27;;;;;;;9.97;5.63;;;;;;;1.43;38.88;98837.47;5027432;28;20037;-59
2023/03/11 00:47:54;;;;;;;8.70;5.43;;;;;;;1.21;39.75;98830.47;5044169;28;20055;-60
2023/03/11 00:50:28;;;;;;;11.77;6.30;;;;;;;1.48;39.98;98833.50;5060555;28;20480;-59
2023/03/11 00:52:55;;;;;;;9.40;5.37;;;;;;;1.31;39.83;98830.53;5060860;28;20048;-59
2023/03/11 00:55:23;;;;;;;7.67;4.40;;;;;;;1.29;39.56;98829.84;5077383;28;20082;-60
2023/03/11 00:57:58;;;;;;;8.03;4.77;;;;;;;1.27;39.85;98837.81;5060519;28;20063;-59
2023/03/11 01:00:28;;;;;;;11.17;5.73;;;;;;;1.05;40.20;98839.59;5076816;28;20084;-60
2023/03/11 01:02:55;;;;;;;11.80;5.70;;;;;;;1.00;40.24;98829.47;5077595;28;20040;-58
2023/03/11 01:05:26;;;;;;;9.53;4.77;;;;;;;1.14;40.58;98829.25;5060648;28;20376;-60
2023/03/11 01:07:51;;;;;;;12.68;6.25;;;;;;;0.97;40.47;98831.53;5076837;28;20498;-60
2023/03/11 01:10:19;;;;;;;10.70;5.63;;;;;;;1.04;40.40;98837.94;5044164;28;20392;-62
2023/03/11 01:12:44;;;;;;;9.83;4.70;;;;;;;0.95;40.44;98830.78;5043740;28;20075;-61
2023/03/11 01:15:21;;;;;;;5.67;4.00;;;;;;;1.15;41.01;98823.06;5043528;28;20051;-60
2023/03/11 01:17:47;;;;;;;8.87;5.13;;;;;;;0.96;40.48;98829.84;5060100;28;20396;-60
2023/03/11 01:20:13;;;;;;;8.63;4.70;;;;;;;0.83;40.68;98832.56;5043349;28;20036;-61
2023/03/11 01:22:39;;;;;;;8.83;5.57;;;;;;;0.80;40.54;98834.59;5060244;28;20095;-59
2023/03/11 01:25:05;;;;;;;11.10;5.27;;;;;;;1.24;40.60;98832.00;5043676;28;20048;-61
2023/03/11 01:27:31;;;;;;;7.17;4.27;;;;;;;0.85;40.77;98828.06;5059926;28;20476;-60
2023/03/11 01:29:56;;;;;;;11.97;4.93;;;;;;;0.72;40.58;98831.72;5027307;28;20078;-58
2023/03/11 01:32:22;;;;;;;9.40;5.07;;;;;;;0.93;40.24;98824.84;5027143;28;20048;-60
2023/03/11 01:34:48;;;;;;;13.30;6.20;;;;;;;1.11;40.15;98834.72;5024373;28;20044;-59
2023/03/11 01:37:14;;;;;;;10.70;6.33;;;;;;;1.07;40.59;98829.84;5056832;28;20042;-61
2023/03/11 01:39:39;;;;;;;10.40;5.50;;;;;;;1.11;40.42;98836.50;5056704;28;20032;-60
2023/03/11 01:42:05;;;;;;;12.53;5.97;;;;;;;1.15;40.53;98835.31;5023828;28;20058;-62
2023/03/11 01:44:32;;;;;;;17.47;5.97;;;;;;;0.92;40.93;98829.22;5056954;28;20060;-61
2023/03/11 01:47:01;;;;;;;11.77;5.77;;;;;;;1.29;40.79;98822.81;5040457;28;20100;-60
2023/03/11 01:49:32;;;;;;;11.10;4.63;;;;;;;0.76;41.32;98830.53;5040739;28;20040;-60
2023/03/11 01:52:06;;;;;;;15.60;5.23;;;;;;;1.20;41.28;98843.66;5023508;28;20174;-60
2023/03/11 01:54:36;;;;;;;9.77;5.30;;;;;;;0.82;41.51;98830.06;5023782;28;20044;-61
2023/03/11 01:57:05;;;;;;;10.43;5.30;;;;;;;0.88;42.47;98827.81;5073111;28;20044;-61
2023/03/11 01:59:39;;;;;;;10.27;5.60;;;;;;;0.92;42.15;98825.81;5070909;28;20499;-62
2023/03/11 02:02:07;;;;;;;10.97;5.97;;;;;;;0.60;42.32;98827.44;5057923;28;20476;-61
2023/03/11 02:04:36;;;;;;;10.87;5.80;;;;;;;0.68;42.58;98838.94;5043083;28;20455;-59
2023/03/11 02:07:03;;;;;;;9.27;3.63;;;;;;;0.61;42.57;98823.84;5057887;28;20572;-61
2023/03/11 02:09:29;;;;;;;11.70;6.30;;;;;;;0.57;43.61;98806.75;5076291;28;20036;-62
2023/03/11 02:11:56;;;;;;;9.27;6.30;;;;;;;0.72;43.28;98806.44;5059588;28;20493;-61
2023/03/11 02:14:23;;;;;;;11.67;6.00;;;;;;;0.74;43.45;98835.06;5042870;28;20069;-59
2023/03/11 02:16:51;;;;;;;10.07;5.77;;;;;;;0.65;43.50;98825.28;5027078;28;20081;-61
2023/03/11 02:19:29;;;;;;;9.10;5.50;;;;;;;0.87;44.04;98809.63;5059753;28;20036;-60
2023/03/11 02:21:56;;;;;;;9.73;6.13;;;;;;;1.00;43.75;98829.47;5059780;28;20093;-61
2023/03/11 02:24:28;;;;;;;11.20;6.10;;;;;;;0.94;44.19;98823.91;5059561;28;20526;-60
2023/03/11 02:27:16;;;;;;;15.03;5.23;;;;;;;1.07;43.91;98827.22;5076014;28;20097;-57
2023/03/11 02:29:47;;;;;;;9.80;5.17;;;;;;;0.81;44.12;98820.56;5042988;28;20357;-59
2023/03/11 02:32:13;;;;;;;12.20;6.40;;;;;;;0.99;44.19;98813.91;5059182;28;20036;-60
2023/03/11 02:34:42;;;;;;;12.33;6.33;;;;;;;1.12;44.20;98814.66;5060213;28;20044;-61
2023/03/11 02:37:10;;;;;;;9.33;5.77;;;;;;;1.13;43.68;98813.69;5042939;28;20134;-63
2023/03/11 02:39:48;;;;;;;12.43;6.93;;;;;;;1.40;43.78;98801.88;5042735;28;20093;-64
2023/03/11 02:42:27;;;;;;;10.43;6.87;;;;;;;1.72;43.74;98804.56;5075781;28;20044;-60
2023/03/11 02:45:11;;;;;;;11.53;6.73;;;;;;;1.69;43.72;98813.47;5059238;28;20047;-61
2023/03/11 02:47:38;;;;;;;14.00;6.60;;;;;;;1.02;44.14;98814.53;5073527;28;20705;-61
2023/03/11 02:50:09;;;;;;;11.63;7.40;;;;;;;1.21;44.20;98803.47;5057513;28;20055;-64
2023/03/11 02:52:35;;;;;;;12.40;7.57;;;;;;;1.30;43.67;98814.03;5041375;28;20093;-63
2023/03/11 02:55:02;;;;;;;20.63;7.50;;;;;;;1.50;43.22;98817.69;5058179;28;20131;-62
2023/03/11 02:57:29;;;;;;;12.07;7.13;;;;;;;1.49;43.71;98816.84;5074513;28;20379;-63
2023/03/11 02:59:54;;;;;;;12.33;6.57;;;;;;;1.52;43.23;98821.03;5042127;28;20052;-63
2023/03/11 03:02:21;;;;;;;14.03;7.80;;;;;;;1.65;42.96;98816.47;5025735;28;20046;-61
2023/03/11 03:04:48;;;;;;;14.77;8.03;;;;;;;1.80;42.67;98815.22;5042309;28;20086;-62
2023/03/11 03:07:14;;;;;;;10.10;6.03;;;;;;;1.22;42.84;98821.66;5058855;28;20113;-62
2023/03/11 03:09:40;;;;;;;9.30;5.73;;;;;;;0.91;43.42;98816.28;5058599;28;20044;-61
2023/03/11 03:12:06;;;;;;;11.17;6.33;;;;;;;1.27;43.33;98819.50;5025579;28;20040;-63
2023/03/11 03:14:33;;;;;;;15.23;7.20;;;;;;;1.13;43.73;98821.53;5042359;28;20096;-62
2023/03/11 03:16:59;;;;;;;13.77;7.13;;;;;;;1.18;43.12;98820.25;5025636;28;20051;-61
2023/03/11 03:19:25;;;;;;;10.30;6.43;;;;;;;1.18;42.70;98811.56;5025459;28;20046;-61
2023/03/11 03:21:52;;;;;;;9.43;6.13;;;;;;;0.94;42.33;98816.06;5058556;28;20115;-60
2023/03/11 03:24:19;;;;;;;11.37;6.77;;;;;;;1.30;42.94;98819.28;5041803;28;20360;-63
2023/03/11 03:26:44;;;;;;;10.87;6.90;;;;;;;1.02;42.29;98809.28;5041981;28;20063;-61
2023/03/11 03:29:11;;;;;;;21.40;7.30;;;;;;;0.97;42.50;98821.06;5025339;28;20510;-60
2023/03/11 03:31:37;;;;;;;8.40;5.13;;;;;;;0.87;43.18;98820.09;5041432;28;20058;-64
2023/03/11 03:34:03;;;;;;;9.37;6.00;;;;;;;0.58;42.65;98821.47;5041605;28;20380;-63
2023/03/11 03:36:29;;;;;;;14.37;7.37;;;;;;;0.73;42.94;98828.16;5025027;28;20055;-62
2023/03/11 03:39:00;;;;;;;12.80;6.80;;;;;;;0.80;43.88;98824.13;5042271;28;20046;-63
2023/03/11 03:41:31;;;;;;;;;;;;;;;1.27;43.42;98818.69;5043297;28;20040;-62
2023/03/11 03:43:57;;;;;;;13.33;6.90;;;;;;;0.66;43.81;98819.94;5041110;28;20386;-63
2023/03/11 03:46:23;;;;;;;16.13;7.97;;;;;;;0.80;43.67;98824.13;5041242;28;20051;-62
2023/03/11 03:48:52;;;;;;;14.80;6.97;;;;;;;0.54;44.23;98814.84;5041485;28;20036;-60
2023/03/11 03:51:18;;;;;;;14.93;6.57;;;;;;;0.57;43.90;98817.22;5041380;28;20409;-62
2023/03/11 03:53:57;;;;;;;13.90;7.50;;;;;;;0.60;44.28;98803.91;5042658;28;20051;-62
2023/03/11 03:56:25;;;;;;;12.33;5.87;;;;;;;0.40;44.30;98821.06;5041540;28;20040;-63
2023/03/11 03:58:52;;;;;;;17.10;8.40;;;;;;;0.73;44.61;98807.25;5073063;28;20077;-62
2023/03/11 04:01:19;;;;;;;13.57;7.70;;;;;;;0.54;45.35;98810.41;5037621;28;20067;-63
2023/03/11 04:03:45;;;;;;;13.70;8.43;;;;;;;0.63;44.74;98811.53;5037790;28;20427;-64
2023/03/11 04:06:19;;;;;;;10.30;6.57;;;;;;;0.36;45.55;98803.13;5054605;28;20052;-61
2023/03/11 04:08:48;;;;;;;15.20;8.50;;;;;;;0.34;45.75;98797.22;5054452;28;20078;-63
2023/03/11 04:11:14;;;;;;;16.67;8.33;;;;;;;0.60;45.14;98793.47;5037774;28;20135;-62
2023/03/11 04:13:43;;;;;;;13.67;7.97;;;;;;;0.67;45.27;98792.03;5053969;28;20048;-63
2023/03/11 04:16:14;;;;;;;18.93;8.70;;;;;;;0.94;46.14;98785.53;5054463;28;20452;-62
2023/03/11 04:18:40;;;;;;;;;;;;;;;1.33;45.47;98790.25;5054453;28;20127;-61
2023/03/11 04:21:07;;;;;;;7.63;5.27;;;;;;;0.24;46.05;98794.44;5021660;28;19920;-63
2023/03/11 04:23:33;;;;;;;13.87;7.03;;;;;;;0.41;45.94;98780.97;5037557;28;20048;-65
2023/03/11 04:26:00;;;;;;;17.83;8.93;;;;;;;0.50;46.85;98769.81;5037239;28;20485;-66
2023/03/11 04:28:26;;;;;;;17.00;9.63;;;;;;;0.80;46.42;98782.31;5037041;28;20044;-65
2023/03/11 04:30:52;;;;;;;12.27;6.83;;;;;;;0.63;46.08;98773.16;5020850;28;20051;-66
2023/03/11 04:33:19;;;;;;;17.07;8.67;;;;;;;0.79;46.11;98776.25;5020815;28;20051;-65
2023/03/11 04:35:45;;;;;;;17.93;8.50;;;;;;;0.76;45.89;98770.44;5036985;28;20040;-60
2023/03/11 04:38:11;;;;;;;15.53;9.07;;;;;;;0.69;45.96;98764.03;5039704;28;20164;-63
2023/03/11 04:40:42;;;;;;;18.20;9.07;;;;;;;0.95;46.83;98761.06;5057668;28;20101;-64
2023/03/11 04:43:09;;;;;;;13.90;7.83;;;;;;;0.60;46.77;98756.88;5057759;28;20044;-64
2023/03/11 04:45:40;;;;;;;15.27;8.30;;;;;;;0.67;47.64;98739.78;5040820;28;20059;-62
2023/03/11 04:48:06;;;;;;;16.98;9.57;;;;;;;0.67;47.14;98756.31;5057573;28;20087;-63
2023/03/11 04:50:33;;;;;;;13.77;8.50;;;;;;;0.58;47.05;98750.94;5041027;28;20032;-63
2023/03/11 04:52:59;;;;;;;13.57;8.43;;;;;;;0.62;47.06;98762.81;5040501;28;20776;-63
2023/03/11 04:55:26;;;;;;;17.20;9.00;;;;;;;0.98;47.20;98760.81;5023852;28;20044;-61
2023/03/11 04:57:52;;;;;;;10.10;6.43;;;;;;;0.53;47.77;98756.53;5024095;28;20055;-62
2023/03/11 05:00:23;;;;;;;17.20;9.27;;;;;;;0.88;47.85;98757.25;5036772;28;20052;-65
2023/03/11 05:02:51;;;;;;;13.17;7.17;;;;;;;0.47;47.97;98736.09;5021207;28;20429;-67
2023/03/11 05:05:20;;;;;;;21.90;9.03;;;;;;;0.80;48.26;98756.19;5053642;28;20056;-63
2023/03/11 05:07:47;;;;;;;14.07;7.90;;;;;;;0.38;48.49;98739.41;5020837;28;20044;-64
2023/03/11 05:10:14;;;;;;;15.93;9.00;;;;;;;0.56;49.60;98748.44;5055824;28;20041;-64
2023/03/11 05:12:40;;;;;;;15.67;9.50;;;;;;;0.48;48.86;98744.78;5040882;28;20040;-65
2023/03/11 05:15:07;;;;;;;14.47;8.03;;;;;;;0.33;49.23;98757.19;5024444;28;20067;-66
2023/03/11 05:17:33;;;;;;;10.30;6.20;;;;;;;0.32;49.30;98752.09;5007947;28;20466;-65
2023/03/11 05:19:59;;;;;;;18.90;9.33;;;;;;;0.43;49.63;98755.53;5024250;28;20044;-66
2023/03/11 05:22:30;;;;;;;11.97;7.90;;;;;;;0.62;49.01;98750.59;5057913;28;20071;-65
2023/03/11 05:24:56;;;;;;;13.73;8.60;;;;;;;0.54;50.13;98745.13;5040572;28;20044;-64
2023/03/11 05:27:22;;;;;;;17.33;9.20;;;;;;;0.68;49.79;98741.44;5040266;28;20599;-64
2023/03/11 05:29:52;;;;;;;19.58;9.77;;;;;;;0.71;49.28;98742.03;5041569;28;20040;-65
2023/03/11 05:32:19;;;;;;;18.67;8.43;;;;;;;0.68;50.19;98746.66;5023998;28;20056;-66
2023/03/11 05:34:47;;;;;;;10.37;7.73;;;;;;;0.24;50.88;98767.50;5057030;28;20545;-66
2023/03/11 05:37:14;;;;;;;15.33;9.17;;;;;;;0.56;51.14;98740.63;5040741;28;20059;-65
2023/03/11 05:39:41;;;;;;;21.47;11.30;;;;;;;0.74;50.88;98747.03;5040371;28;20045;-65
2023/03/11 05:42:07;;;;;;;16.97;10.00;;;;;;;0.58;50.32;98741.34;5024399;28;20075;-65
2023/03/11 05:44:34;;;;;;;22.63;11.50;;;;;;;0.78;50.88;98732.78;5024385;28;20118;-64
2023/03/11 05:47:01;;;;;;;18.60;10.23;;;;;;;0.53;50.75;98760.91;5056528;28;20036;-64
2023/03/11 05:49:27;;;;;;;17.97;7.80;;;;;;;0.60;50.71;98751.66;5039870;28;20044;-64
2023/03/11 05:51:54;;;;;;;13.37;7.23;;;;;;;0.51;50.91;98753.19;5023523;28;20064;-65
2023/03/11 05:54:20;;;;;;;13.20;8.27;;;;;;;0.49;50.85;98746.44;5006886;28;20036;-65
2023/03/11 05:56:48;;;;;;;15.13;8.30;;;;;;;0.84;50.71;98755.00;5039141;28;20055;-66
2023/03/11 05:59:16;;;;;;;19.87;9.13;;;;;;;0.89;50.12;98750.25;5023227;28;20048;-65
2023/03/11 06:01:42;;;;;;;13.60;7.40;;;;;;;0.69;50.50;98764.84;5054247;28;20086;-65
2023/03/11 06:04:09;;;;;;;21.87;9.80;;;;;;;0.98;50.44;98745.13;5006974;28;20135;-65
2023/03/11 06:06:37;;;;;;;14.57;9.30;;;;;;;0.88;50.97;98748.56;5023154;28;20058;-67
2023/03/11 06:09:03;;;;;;;10.40;6.20;;;;;;;0.58;50.63;98764.00;5073731;28;20442;-64
2023/03/11 06:11:29;;;;;;;13.60;7.03;;;;;;;0.53;51.33;98750.44;5039253;28;20052;-64
2023/03/11 06:13:57;;;;;;;12.73;7.30;;;;;;;0.82;51.02;98746.44;5039681;28;20169;-63
2023/03/11 06:16:24;;;;;;;14.37;8.77;;;;;;;0.82;51.37;98749.88;5056164;28;20044;-64
2023/03/11 06:18:52;;;;;;;8.43;5.50;;;;;;;0.52;51.16;98761.88;5022825;28;20044;-62
2023/03/11 06:21:22;;;;;;;16.23;8.47;;;;;;;1.15;50.75;98754.25;5055259;28;20135;-64
2023/03/11 06:23:48;;;;;;;13.48;6.88;;;;;;;0.82;51.33;98746.44;5056109;28;20082;-64
2023/03/11 06:26:17;;;;;;;13.27;6.87;;;;;;;0.89;51.20;98758.91;5022861;28;20041;-72
2023/03/11 06:28:46;;;;;;;15.77;7.70;;;;;;;1.11;50.60;98747.59;5039397;28;20148;-71
2023/03/11 06:31:21;;;;;;;7.80;5.57;;;;;;;1.05;50.99;98740.25;5055846;28;20098;-65
2023/03/11 06:33:47;;;;;;;16.63;7.97;;;;;;;1.42;50.27;98737.22;5055234;28;20087;-66
2023/03/11 06:36:15;;;;;;;9.53;6.00;;;;;;;1.06;50.46;98744.53;5037366;28;20036;-65
2023/03/11 06:38:41;;;;;;;11.43;6.77;;;;;;;0.98;51.19;98749.53;5037064;28;20131;-65
2023/03/11 06:41:08;;;;;;;13.17;6.97;;;;;;;0.93;50.50;98743.81;5021733;28;20052;-66
2023/03/11 06:43:35;;;;;;;13.83;7.90;;;;;;;1.29;51.20;98720.00;5021391;28;20044;-64
2023/03/11 06:46:08;;;;;;;11.83;7.43;;;;;;;1.39;50.69;98739.22;5037533;28;20041;-64
2023/03/11 06:48:36;;;;;;;12.37;7.87;;;;;;;1.12;50.32;98739.63;5038031;28;20147;-64
2023/03/11 06:51:02;;;;;;;12.27;6.00;;;;;;;1.04;50.04;98742.03;5055647;28;20480;-64
2023/03/11 06:53:29;;;;;;;10.80;7.13;;;;;;;1.39;51.02;98728.78;5055667;28;20051;-63
2023/03/11 06:56:06;;;;;;;13.07;7.13;;;;;;;1.87;50.92;98734.44;5055450;28;20448;-64
2023/03/11 06:58:39;;;;;;;13.27;6.90;;;;;;;1.88;49.67;98726.44;5039296;28;20545;-65
2023/03/11 07:01:09;;;;;;;7.90;4.43;;;;;;;1.40;49.84;98725.19;5084532;28;20315;-65
2023/03/11 07:03:37;;;;;;;9.20;5.07;;;;;;;1.11;49.97;98719.69;5058350;28;20051;-66
2023/03/11 07:06:04;;;;;;;7.13;5.23;;;;;;;0.95;49.49;98728.84;5023927;28;20032;-65
2023/03/11 07:08:30;;;;;;;8.83;5.63;;;;;;;0.76;51.18;98726.00;5075286;28;20055;-63
2023/03/11 07:10:59;;;;;;;12.40;6.80;;;;;;;1.59;51.59;98693.97;5042232;28;20044;-63
2023/03/11 07:13:25;;;;;;;10.63;6.30;;;;;;;1.48;50.11;98718.41;5058462;28;20059;-62
2023/03/11 07:16:02;;;;;;;11.30;5.90;;;;;;;1.40;50.55;98717.34;5041805;28;20043;-62
2023/03/11 07:18:28;;;;;;;9.27;4.90;;;;;;;0.97;50.47;98716.50;5058782;28;20036;-61
2023/03/11 07:20:55;;;;;;;12.00;7.87;;;;;;;1.56;50.24;98694.22;5042207;28;20151;-61
2023/03/11 07:23:21;;;;;;;14.50;7.27;;;;;;;2.15;49.49;98707.63;5041733;28;20123;-63
2023/03/11 07:25:47;;;;;;;10.87;5.50;;;;;;;2.05;47.89;98710.19;5057126;28;20047;-66
2023/03/11 07:28:13;;;;;;;9.73;5.77;;;;;;;1.33;49.07;98703.94;5052646;28;20040;-63
2023/03/11 07:30:39;;;;;;;10.07;5.47;;;;;;;1.88;49.09;98673.28;5068706;28;20073;-64
2023/03/11 07:33:05;;;;;;;8.67;5.47;;;;;;;1.22;49.82;98703.13;5056334;28;20372;-63
2023/03/11 07:35:30;;;;;;;10.80;6.93;;;;;;;2.05;49.78;98698.88;5056839;28;20040;-64
2023/03/11 07:37:56;;;;;;;8.67;5.37;;;;;;;1.81;49.60;98711.38;5073994;28;20051;-61
2023/03/11 07:40:22;;;;;;;8.57;5.00;;;;;;;1.57;49.44;98690.66;5074663;28;20035;-64
2023/03/11 07:42:48;;;;;;;13.90;7.07;;;;;;;1.81;49.64;98669.50;5058007;28;20480;-72
2023/03/11 07:45:18;;;;;;;9.57;5.90;;;;;;;1.62;49.63;98686.72;5042195;28;20424;-72
2023/03/11 07:47:44;;;;;;;10.30;5.53;;;;;;;1.94;49.43;98670.97;5058201;28;20047;-63
2023/03/11 07:50:10;;;;;;;8.83;5.73;;;;;;;1.64;49.25;98663.88;5041548;28;20052;-63
2023/03/11 07:52:36;;;;;;;11.77;6.47;;;;;;;1.42;50.61;98656.13;5041387;28;20048;-62
2023/03/11 07:55:01;;;;;;;10.27;5.13;;;;;;;1.33;50.76;98663.88;5041161;28;20044;-63
2023/03/11 07:57:29;;;;;;;10.27;5.63;;;;;;;1.41;51.18;98662.31;5041729;28;20097;-63
2023/03/11 07:59:54;;;;;;;8.50;5.50;;;;;;;1.47;51.02;98646.13;5041221;28;20574;-63
2023/03/11 08:02:20;;;;;;;7.33;4.47;;;;;;;1.09;50.81;98639.72;5041243;28;20058;-64
2023/03/11 08:04:46;;;;;;;10.80;5.97;;;;;;;1.75;51.68;98627.16;5041405;28;20509;-63
2023/03/11 08:07:11;;;;;;;9.47;5.80;;;;;;;1.52;51.47;98633.47;5057571;28;20090;-62
2023/03/11 08:09:37;;;;;;;9.07;5.87;;;;;;;2.02;51.18;98617.94;5040893;28;20547;-62
2023/03/11 08:12:04;;;;;;;7.93;4.93;;;;;;;2.12;50.40;98631.94;5041268;28;20055;-63
2023/03/11 08:14:30;;;;;;;11.63;6.77;;;;;;;2.28;52.11;98612.16;5057824;28;20040;-61
2023/03/11 08:16:56;;;;;;;9.00;5.53;;;;;;;2.48;50.07;98621.75;5057753;28;20043;-62
2023/03/11 08:19:21;;;;;;;8.73;5.27;;;;;;;2.28;49.96;98624.41;5041003;28;20043;-65
2023/03/11 08:21:47;;;;;;;10.20;5.00;;;;;;;2.04;50.12;98609.03;5074432;28;20044;-64
2023/03/11 08:24:14;;;;;;;9.30;4.97;;;;;;;1.44;51.32;98632.44;5074409;28;20434;-63
2023/03/11 08:26:40;;;;;;;12.03;4.87;;;;;;;1.48;53.08;98620.75;5040798;28;20138;-63
2023/03/11 08:29:06;;;;;;;6.70;4.03;;;;;;;1.20;52.49;98595.22;5074440;28;20443;-63
2023/03/11 08:31:33;;;;;;;7.60;4.23;;;;;;;1.29;54.72;98592.66;5057630;28;20071;-64
2023/03/11 08:34:02;;;;;;;4.33;3.27;;;;;;;1.76;53.93;98601.81;5074235;28;20047;-62
2023/03/11 08:36:28;;;;;;;5.53;3.80;;;;;;;1.74;52.76;98593.25;5041053;28;20036;-62
2023/03/11 08:38:54;;;;;;;8.93;3.60;;;;;;;1.70;52.89;98582.25;5057491;28;20040;-61
2023/03/11 08:41:19;;;;;;;6.20;4.03;;;;;;;1.67;52.70;98590.34;5074711;28;20108;-62
2023/03/11 08:43:45;;;;;;;5.63;4.10;;;;;;;1.88;52.58;98606.03;5040914;28;20455;-62
2023/03/11 08:46:35;;;;;;;7.00;4.30;;;;;;;2.35;52.58;98594.97;5061610;28;20356;-62
2023/03/11 08:49:01;;;;;;;9.20;4.77;;;;;;;1.84;52.59;98567.16;5077882;28;20054;-62
2023/03/11 08:51:28;;;;;;;6.97;4.70;;;;;;;2.13;52.06;98582.06;5061354;28;20389;-62
2023/03/11 08:53:54;;;;;;;8.10;3.87;;;;;;;2.09;52.20;98585.06;5061518;28;20040;-62
2023/03/11 08:56:20;;;;;;;5.67;4.13;;;;;;;1.84;51.61;98588.09;5061599;28;20148;-60
2023/03/11 08:58:47;;;;;;;8.20;4.00;;;;;;;1.69;51.46;98582.38;5044466;28;20134;-63
2023/03/11 09:01:13;;;;;;;7.23;4.10;;;;;;;1.87;52.44;98578.19;5078087;28;20572;-62
2023/03/11 09:03:39;;;;;;;5.37;3.83;;;;;;;1.95;51.88;98585.41;5044716;28;20055;-62
2023/03/11 09:06:08;;;;;;;5.03;3.23;;;;;;;2.64;53.05;98589.81;5044503;28;20047;-63
2023/03/11 09:08:34;;;;;;;6.83;4.23;;;;;;;2.25;52.01;98580.16;5077422;28;20044;-63
2023/03/11 09:11:00;;;;;;;6.97;4.33;;;;;;;2.15;51.64;98572.28;5061496;28;20089;-62
2023/03/11 09:13:26;;;;;;;7.90;3.20;;;;;;;2.48;52.41;98558.88;5077808;28;20075;-62
2023/03/11 09:15:52;;;;;;;5.70;3.77;;;;;;;1.86;54.55;98552.97;5061164;28;20051;-62
2023/03/11 09:18:18;;;;;;;4.43;3.30;;;;;;;1.43;54.95;98609.88;5044033;28;20080;-62
2023/03/11 09:20:44;;;;;;;2.90;2.33;;;;;;;2.03;54.91;98564.66;5061011;28;20113;-62
2023/03/11 09:23:14;;;;;;;3.03;2.47;;;;;;;1.85;57.27;98553.94;5060808;28;20122;-62
2023/03/11 09:25:39;;;;;;;3.67;2.77;;;;;;;1.66;53.58;98566.94;5044064;28;20048;-63
2023/03/11 09:28:05;;;;;;;3.67;2.53;;;;;;;1.38;53.32;98576.22;5027354;28;20134;-63
2023/03/11 09:30:31;;;;;;;3.37;2.50;;;;;;;1.76;52.54;98554.72;5043997;28;20514;-63
2023/03/11 09:32:57;;;;;;;4.93;2.87;;;;;;;1.90;51.71;98564.00;5043796;28;20448;-64
2023/03/11 09:35:23;;;;;;;4.83;2.03;;;;;;;2.48;52.35;98558.03;5044134;28;20130;-62
2023/03/11 09:37:49;;;;;;;9.20;3.30;;;;;;;2.12;53.19;98543.75;5043228;28;20040;-62
2023/03/11 09:40:20;;;;;;;2.87;2.17;;;;;;;2.69;53.32;98556.97;5059993;28;20285;-63
2023/03/11 09:42:53;;;;;;;6.40;2.77;;;;;;;2.80;52.00;98556.03;5076632;28;20039;-64
2023/03/11 09:45:29;;;;;;;4.60;2.77;;;;;;;2.55;53.03;98557.38;5060013;28;20608;-64
2023/03/11 09:48:19;;;;;;;6.20;3.50;;;;;;;2.44;52.68;98547.03;5077121;28;20048;-63
2023/03/11 09:50:59;;;;;;;6.03;3.03;;;;;;;2.19;53.08;98610.34;5076308;28;20047;-65
2023/03/11 09:53:30;;;;;;;3.35;2.38;;;;;;;2.52;52.55;98531.44;5027201;28;20047;-64
2023/03/11 09:55:56;;;;;;;;;;;;;;;2.68;52.16;98534.38;5059199;28;20044;-68
2023/03/11 09:58:36;;;;;;;2.20;2.00;;;;;;;2.47;53.04;98528.41;5043618;28;19922;-66
2023/03/11 10:01:14;;;;;;;4.83;2.50;;;;;;;2.15;52.46;98559.19;5055707;28;20530;-65
2023/03/11 10:03:40;;;;;;;2.63;2.10;;;;;;;1.74;53.42;98546.16;5056302;28;20045;-65
2023/03/11 10:06:28;;;;;;;3.27;2.10;;;;;;;2.82;53.61;98505.13;5073002;28;20495;-66
2023/03/11 10:08:58;;;;;;;3.30;2.57;;;;;;;2.43;52.95;98513.91;5056419;28;20048;-65
2023/03/11 10:12:05;;;;;;;3.72;2.75;;;;;;;2.76;52.62;98508.31;5039694;28;20048;-64
2023/03/11 10:14:31;;;;;;;7.30;1.90;;;;;;;2.02;52.34;98497.50;5023034;28;20052;-64
2023/03/11 10:17:12;;;;;;;3.13;2.30;;;;;;;2.61;52.14;98506.22;5039619;28;20048;-63
2023/03/11 10:19:55;;;;;;;2.60;1.97;;;;;;;2.05;51.77;98537.34;5039477;28;20056;-64
2023/03/11 10:22:27;;;;;;;6.40;2.83;;;;;;;2.27;52.45;98474.31;5056531;28;20084;-64
2023/03/11 10:25:02;;;;;;;2.70;2.50;;;;;;;2.21;52.64;98474.84;5056387;28;20132;-63
2023/03/11 10:27:53;;;;;;;5.13;2.90;;;;;;;2.56;52.92;98461.25;5055836;28;20041;-66
2023/03/11 10:30:30;;;;;;;5.07;2.67;;;;;;;2.27;52.92;98466.44;5038278;28;20063;-62
2023/03/11 10:33:17;;;;;;;2.33;2.13;;;;;;;2.82;51.94;98444.00;5055434;28;20064;-64
2023/03/11 10:35:47;;;;;;;3.97;3.13;;;;;;;2.40;52.72;98464.38;5071284;28;20396;-64
2023/03/11 10:38:19;;;;;;;2.33;2.00;;;;;;;2.78;52.87;98456.56;5054480;28;20044;-65
2023/03/11 10:40:47;;;;;;;4.87;3.10;;;;;;;2.34;52.42;98443.16;5038267;28;20476;-64
2023/03/11 10:43:17;;;;;;;4.20;2.80;;;;;;;2.68;53.54;98457.53;5039554;28;20040;-62
2023/03/11 10:45:45;;;;;;;3.80;2.90;;;;;;;2.61;52.96;98425.81;5071089;28;20118;-65
2023/03/11 10:48:13;;;;;;;4.17;3.20;;;;;;;2.71;52.11;98418.75;5053091;28;20121;-64
2023/03/11 10:50:52;;;;;;;5.47;3.03;;;;;;;2.77;52.76;98420.00;5054212;28;20048;-65
2023/03/11 10:53:19;;;;;;;3.67;2.97;;;;;;;2.76;51.86;98407.84;5022804;28;20388;-65
2023/03/11 10:55:51;;;;;;;2.10;1.90;;;;;;;3.29;51.89;98422.94;5054550;28;20043;-64
2023/03/11 10:58:28;;;;;;;5.07;3.50;;;;;;;2.84;52.68;98374.75;5071257;28;20051;-66
2023/03/11 11:01:13;;;;;;;3.57;2.90;;;;;;;3.14;52.08;98399.94;5053792;28;20043;-64
2023/03/11 11:03:48;;;;;;;3.93;3.00;;;;;;;3.36;51.98;98379.44;5072287;28;20072;-65
2023/03/11 11:06:40;;;;;;;2.57;1.53;;;;;;;3.38;51.57;98385.34;5080268;28;20051;-64
2023/03/11 11:09:29;;;;;;;4.67;3.00;;;;;;;3.12;53.10;98383.53;5054494;28;20048;-65
2023/03/11 11:12:05;;;;;;;3.67;2.47;;;;;;;3.02;52.00;98395.81;5040125;28;20410;-66
2023/03/11 11:14:43;;;;;;;5.27;2.80;;;;;;;3.02;52.28;98375.69;5062402;28;20484;-65
2023/03/11 11:17:30;;;;;;;3.73;2.03;;;;;;;3.13;52.35;98367.66;5081434;28;20048;-67
2023/03/11 11:19:57;;;;;;;5.07;3.57;;;;;;;2.43;52.78;98356.69;5055030;28;20067;-65
2023/03/11 11:22:24;;;;;;;4.70;2.80;;;;;;;3.22;52.65;98358.06;5070940;28;20040;-67
2023/03/11 11:24:53;;;;;;;3.03;2.50;;;;;;;3.34;52.14;98351.69;5052495;28;20063;-67
2023/03/11 11:27:23;;;;;;;3.20;2.60;;;;;;;3.64;51.82;98358.47;5031194;28;20043;-67
2023/03/11 11:30:13;;;;;;;3.95;2.58;;;;;;;2.41;54.54;98336.84;5059193;28;20048;-66
2023/03/11 11:32:39;;;;;;;2.28;2.05;;;;;;;2.21;53.53;98345.69;5067174;28;20040;-65
2023/03/11 11:35:09;;;;;;;1.43;1.33;;;;;;;2.89;53.98;98335.81;5036916;28;20537;-65
2023/03/11 11:37:42;;;;;;;5.67;3.43;;;;;;;3.04;52.81;98349.31;5053282;28;20036;-64
2023/03/11 11:40:14;;;;;;;5.17;3.40;;;;;;;3.14;52.93;98347.47;5073563;28;20036;-65
2023/03/11 11:42:44;;;;;;;7.00;3.63;;;;;;;2.68;53.55;98339.56;5079403;28;20040;-64
2023/03/11 11:45:15;;;;;;;4.95;3.33;;;;;;;2.92;53.86;98343.38;5021567;28;20048;-64